Iver Bright — ZDKU4 — position and weather

sailwx.info

Track history (hours):
 
Tides and Currents Weather Stations Pressure Air Temp Water Temp Dewpoint Dewpoint Depression Visibility Wind Speed Wind Dir Waves Ship Positions

Iver Bright

Last reported at 2016-Jun-30 13:08 UTC. Time now 2016-Jun-30 15:55 UTC.
Position N 40°39' E 006°54'.

Length 111 m; draft 5.2 m.

Type: Tanker. MMSI: 236111811.

Date/timePositionNaut miles runAvg speedWind from/ knotsBaromVisibWave heightAir tempDewpointWater temp
2016-Jun-30 13:08N 40°39' E 006°54'1912.0
2016-Jun-30 11:33N 40°56' E 006°41'1412.0
2016-Jun-30 10:22N 41°08' E 006°32'1012.1
2016-Jun-30 09:33N 41°17' E 006°26'1212.0
2016-Jun-30 08:33N 41°28' E 006°18'8512.2
2016-Jun-30 01:33N 42°42' E 005°21'4411.1
2016-Jun-29 21:33N 43°23' E 004°59'1 1.3
2016-Jun-29 20:33N 43°24' E 004°60'0 0.0
2016-Jun-29 19:33N 43°24' E 004°60'0 0.0
2016-Jun-29 18:33N 43°24' E 004°60'0 0.0
2016-Jun-29 17:24N 43°24' E 004°60'0 0.0
2016-Jun-29 16:30N 43°24' E 004°60'0 0.0
2016-Jun-29 15:24N 43°24' E 004°60'0 0.0
2016-Jun-29 14:24N 43°24' E 004°60'0 0.0
2016-Jun-29 13:30N 43°24' E 004°60'0 0.0
2016-Jun-29 12:30N 43°24' E 004°60'0 0.0
2016-Jun-29 11:33N 43°24' E 004°60'0 0.0
2016-Jun-29 10:33N 43°24' E 004°60'0 0.0
2016-Jun-29 09:30N 43°24' E 004°60'0 0.0
2016-Jun-29 08:33N 43°24' E 004°60'0 0.0
2016-Jun-29 07:33N 43°24' E 004°60'0 0.0
2016-Jun-29 06:33N 43°24' E 004°60'0 0.0
2016-Jun-29 05:30N 43°24' E 004°60'0 0.0
2016-Jun-29 04:33N 43°24' E 004°60'0 0.0
2016-Jun-29 03:33N 43°24' E 004°60'4 3.5
2016-Jun-29 02:31N 43°20' E 004°59'9211.5
2016-Jun-28 18:33N 41°59' E 005°56'1211.8
2016-Jun-28 17:33N 41°49' E 006°04'1212.1
2016-Jun-28 16:33N 41°38' E 006°12'20811.3
2016-Jun-27 22:08N 38°40' E 008°31'711.4
2016-Jun-27 21:33N 38°36' E 008°38'2311.2
2016-Jun-27 19:32N 38°23' E 009°02'1211.0
2016-Jun-27 18:24N 38°16' E 009°15'5510.8
2016-Jun-27 13:18N 37°45' E 010°13'43 1.0
2016-Jun-25 17:33N 37°22' E 010°59'1110.8
2016-Jun-25 16:29N 37°27' E 011°12'2110.9
2016-Jun-25 14:33N 37°20' E 011°37'1711.7
2016-Jun-25 13:06N 37°15' E 011°57'1811.7
2016-Jun-25 11:33N 37°11' E 012°19'1111.2
2016-Jun-25 10:33N 37°07' E 012°32'1110.8
2016-Jun-25 09:33N 37°03' E 012°45'1711.6
2016-Jun-25 08:05N 36°57' E 013°05'611.4
2016-Jun-25 07:32N 36°54' E 013°12'1411.3
2016-Jun-25 06:19N 36°49' E 013°28'811.0
2016-Jun-25 05:34N 36°45' E 013°37'1110.8
2016-Jun-25 04:33N 36°42' E 013°50'1111.2
2016-Jun-25 03:33N 36°37' E 014°02'1211.7
2016-Jun-25 02:33N 36°32' E 014°16'1211.6
2016-Jun-25 01:33N 36°28' E 014°29'1111.5
2016-Jun-25 00:33N 36°25' E 014°43'1211.9
2016-Jun-24 23:32N 36°27' E 014°58'1212.1
2016-Jun-24 22:32N 36°31' E 015°12'  
2016-Jun-21 01:27N 36°26' E 014°48'1111.9
2016-Jun-21 00:34N 36°27' E 014°35'1212.4
2016-Jun-20 23:34N 36°33' E 014°21'1312.5
2016-Jun-20 22:34N 36°39' E 014°08'1313.0
2016-Jun-20 21:34N 36°45' E 013°54'1313.3
2016-Jun-20 20:34N 36°52' E 013°39'1312.7
2016-Jun-20 19:34N 36°58' E 013°25'1313.0
2016-Jun-20 18:33N 37°04' E 013°11'  
Track history (hours):
 
Tides and Currents Weather Stations Pressure Air Temp Water Temp Dewpoint Dewpoint Depression Visibility Wind Speed Wind Dir Waves Ship Positions

Iver Bright

Last reported at 2016-Jun-30 13:08 UTC. Time now 2016-Jun-30 15:55 UTC.
Position N 40°39' E 006°54'.

Length 111 m; draft 5.2 m.

Type: Tanker. MMSI: 236111811.

Date/timePositionNaut miles runAvg speedWind from/ knotsBaromVisibWave heightAir tempDewpointWater temp
2016-Jun-30 13:08N 40°39' E 006°54'1912.0
2016-Jun-30 11:33N 40°56' E 006°41'1412.0
2016-Jun-30 10:22N 41°08' E 006°32'1012.1
2016-Jun-30 09:33N 41°17' E 006°26'1212.0
2016-Jun-30 08:33N 41°28' E 006°18'8512.2
2016-Jun-30 01:33N 42°42' E 005°21'4411.1
2016-Jun-29 21:33N 43°23' E 004°59'1 1.3
2016-Jun-29 20:33N 43°24' E 004°60'0 0.0
2016-Jun-29 19:33N 43°24' E 004°60'0 0.0
2016-Jun-29 18:33N 43°24' E 004°60'0 0.0
2016-Jun-29 17:24N 43°24' E 004°60'0 0.0
2016-Jun-29 16:30N 43°24' E 004°60'0 0.0
2016-Jun-29 15:24N 43°24' E 004°60'0 0.0
2016-Jun-29 14:24N 43°24' E 004°60'0 0.0
2016-Jun-29 13:30N 43°24' E 004°60'0 0.0
2016-Jun-29 12:30N 43°24' E 004°60'0 0.0
2016-Jun-29 11:33N 43°24' E 004°60'0 0.0
2016-Jun-29 10:33N 43°24' E 004°60'0 0.0
2016-Jun-29 09:30N 43°24' E 004°60'0 0.0
2016-Jun-29 08:33N 43°24' E 004°60'0 0.0
2016-Jun-29 07:33N 43°24' E 004°60'0 0.0
2016-Jun-29 06:33N 43°24' E 004°60'0 0.0
2016-Jun-29 05:30N 43°24' E 004°60'0 0.0
2016-Jun-29 04:33N 43°24' E 004°60'0 0.0
2016-Jun-29 03:33N 43°24' E 004°60'4 3.5
2016-Jun-29 02:31N 43°20' E 004°59'9211.5
2016-Jun-28 18:33N 41°59' E 005°56'1211.8
2016-Jun-28 17:33N 41°49' E 006°04'1212.1
2016-Jun-28 16:33N 41°38' E 006°12'20811.3
2016-Jun-27 22:08N 38°40' E 008°31'711.4
2016-Jun-27 21:33N 38°36' E 008°38'2311.2
2016-Jun-27 19:32N 38°23' E 009°02'1211.0
2016-Jun-27 18:24N 38°16' E 009°15'5510.8
2016-Jun-27 13:18N 37°45' E 010°13'43 1.0
2016-Jun-25 17:33N 37°22' E 010°59'1110.8
2016-Jun-25 16:29N 37°27' E 011°12'2110.9
2016-Jun-25 14:33N 37°20' E 011°37'1711.7
2016-Jun-25 13:06N 37°15' E 011°57'1811.7
2016-Jun-25 11:33N 37°11' E 012°19'1111.2
2016-Jun-25 10:33N 37°07' E 012°32'1110.8
2016-Jun-25 09:33N 37°03' E 012°45'1711.6
2016-Jun-25 08:05N 36°57' E 013°05'611.4
2016-Jun-25 07:32N 36°54' E 013°12'1411.3
2016-Jun-25 06:19N 36°49' E 013°28'811.0
2016-Jun-25 05:34N 36°45' E 013°37'1110.8
2016-Jun-25 04:33N 36°42' E 013°50'1111.2
2016-Jun-25 03:33N 36°37' E 014°02'1211.7
2016-Jun-25 02:33N 36°32' E 014°16'1211.6
2016-Jun-25 01:33N 36°28' E 014°29'1111.5
2016-Jun-25 00:33N 36°25' E 014°43'1211.9
2016-Jun-24 23:32N 36°27' E 014°58'1212.1
2016-Jun-24 22:32N 36°31' E 015°12'  
2016-Jun-21 01:27N 36°26' E 014°48'1111.9
2016-Jun-21 00:34N 36°27' E 014°35'1212.4
2016-Jun-20 23:34N 36°33' E 014°21'1312.5
2016-Jun-20 22:34N 36°39' E 014°08'1313.0
2016-Jun-20 21:34N 36°45' E 013°54'1313.3
2016-Jun-20 20:34N 36°52' E 013°39'1312.7
2016-Jun-20 19:34N 36°58' E 013°25'1313.0
2016-Jun-20 18:33N 37°04' E 013°11'  

Dump ship's entire track history